South Bend, IN

8:31 PM EDT on September 26, 2016 (GMT -0400)
South Bend Regional | | Change Station

Elev 774 ft 41.71 °N, 86.32 °W | Updated 37 minutes ago

Clear
Clear
57 °F
Feels Like 57 °F
N
8
Wind Variable Wind from WSW

Today
High -- | Low -- °F
--% Chance of Precip.
Yesterday
High -- | Low -- °F
Precip. -- in
Pressure 29.94 in
Visibility 10.0 miles
Clouds Clear
Dew Point 41 °F
Humidity 55%
Rainfall 0.13 in
Snow Depth Not available.
7:37 AM 7:34 PM
Waning Crescent, 15% visible
METAR KSBN 262354Z 25007KT 10SM CLR 14/05 A2994 RMK AO2 SLP139 T01390050 10200 20139 53003
Pressure 29.94 in
Visibility 10.0 miles
Clouds Clear
Dew Point 41 °F
Humidity 55%
Rainfall 0.13 in
Snow Depth Not available.
7:37 AM 7:34 PM
Waning Crescent, 15% visible
METAR KSBN 262354Z 25007KT 10SM CLR 14/05 A2994 RMK AO2 SLP139 T01390050 10200 20139 53003

10-Day Weather Forecast

Almanac

Astronomy

Sep. 26, 2016 Rise Set
Actual Time
Civil Twilight
Nautical Twilight
Astronomical Twilight
Moon
Length of Visible Light
Length of Day
Tomorrow will be .
, % of the Moon is Illuminated

Today's Extremes

State Highs State Lows

Community

WunderPhotos

Upload Photos

1,941,992 photos uploaded!

WunderBlog® & News

Nearby

Air Quality

  Air Quality AQ Index Pollutant
Not available.

Snow Depth

Station Depth Elevation

Earthquake Activity

City Distance Mag. Time & Date
Minimum magnitude displayed is 2.5.

Coastal Water Temperatures

Place Temperature

Stations

Nearby Weather Stations

Station Location Temp. Windchill Dew Point Humidity Wind Precip. Elev Updated Type
                   

Watches & Warnings

There are currently no watches in effect.